Henefer, Utah
Current Conditions -  °F | °C
As of 3:13 PM on Tuesday 21 Oct 2014 (Local Time) from KHIF Reporting Station
Broken Clouds Broken Clouds  
Wind Chill: 57°   Ceiling: 7000
Heat Index: 57°   Visibility: 10mi
Dew Point: 32°   Wind: 9mph
Humidity: 38%   Direction: 350°N
Pressure: 30.03"   Gusts: NA
Location:  41.02°N, 111.5°W
Report Text: KHIF 212113Z AUTO 35008KT 10SM BKN070 BKN080 BKN110 14/00 A3003 RMK AO2
Loading
Personal Weather Stations






























Interactive Weather Map
Tropical Storm Tracking
New forecast layout! Learn more

10-Day Weather Forecast

Advertisements
Track Severe Weather on mobile